Terminal Aerodrome Forecast
Issued by NWS

Current Version | Previous Version | Text Only | Print | Product List | Glossary On
Versions: 1 2 3 4 5 6 7 8 9 10 11 12 13 14 15 16 17 18 19 20 21 22 23 24 25 26 27 28 29 30 31 32
000
FTUS41 KOKX 010341 AAB
TAFHPN
TAF AMD
KHPN 010341Z 0104/0124 36005KT 5SM BR SCT015 OVC025
     FM010500 35010G16KT P6SM SCT015 BKN035
     FM010700 33008KT P6SM SCT250
     FM011400 32010G16KT P6SM SCT040 SCT100 SCT200
     FM012300 VRB05KT P6SM SKC
      AMD NOT SKED=

USA.gov is the U.S. government's official web portal to all federal, state and local government web resources and services.